Time;durP1;ratioP1;P1;durP2;ratioP2;P2;SDS_P1;SDS_P2;PMS_P1;PMS_P2;Temp;Humidity;BMP_temperature;BMP_pressure;BME280_temperature;BME280_humidity;BME280_pressure;Samples;Min_cycle;Max_cycle;Signal;HPM_P1;HPM_P2
2023/06/29 00:01:10;;;;;;;30.65;22.33;;;23.20;99.90;;;23.70;76.70;101516.28;5051671;28;20059;-75
2023/06/29 00:03:41;;;;;;;39.00;22.93;;;23.20;99.90;;;23.66;77.02;101510.16;5047957;28;20049;-74
2023/06/29 00:06:10;;;;;;;31.23;22.95;;;23.10;99.90;;;23.62;77.27;101502.28;5051203;28;20790;-76
2023/06/29 00:08:40;;;;;;;29.42;21.40;;;23.10;99.90;;;23.62;77.48;101502.28;5055048;28;20476;-74
2023/06/29 00:11:12;;;;;;;33.13;22.50;;;23.10;99.90;;;23.62;77.53;101513.09;5054828;28;20087;-75
2023/06/29 00:13:40;;;;;;;28.80;22.88;;;23.10;99.90;;;23.60;77.65;101509.56;5054725;28;20393;-75
2023/06/29 00:16:09;;;;;;;27.50;21.15;;;23.10;99.90;;;23.60;77.60;101510.47;5053666;28;20479;-74
2023/06/29 00:18:38;;;;;;;29.05;22.20;;;23.10;99.90;;;23.56;77.80;101500.75;5054623;28;20052;-75
2023/06/29 00:21:06;;;;;;;31.75;23.35;;;23.00;99.90;;;23.59;77.90;101507.84;5050923;28;20054;-74
2023/06/29 00:23:35;;;;;;;29.13;22.20;;;23.10;99.90;;;23.56;78.27;101500.75;5054520;28;20075;-74
2023/06/29 00:26:05;;;;;;;28.30;22.25;;;23.10;99.90;;;23.58;78.13;101504.25;5051172;28;20042;-75
2023/06/29 00:28:33;;;;;;;32.63;22.83;;;23.10;99.90;;;23.55;78.29;101495.44;5054852;28;20409;-75
2023/06/29 00:31:02;;;;;;;31.92;22.33;;;23.00;99.90;;;23.50;78.59;101487.53;5053465;28;20112;-75
2023/06/29 00:33:31;;;;;;;34.35;23.42;;;23.00;99.90;;;23.50;78.89;101486.69;5054440;28;20100;-74
2023/06/29 00:35:59;;;;;;;29.92;22.48;;;22.90;99.90;;;23.47;79.05;101485.00;5054736;28;20053;-74
2023/06/29 00:38:29;;;;;;;30.90;23.67;;;22.90;99.90;;;23.46;78.83;101480.53;5053407;28;20059;-75
2023/06/29 00:40:58;;;;;;;31.90;22.38;;;22.90;99.90;;;23.47;78.96;101485.00;5054659;28;20037;-75
2023/06/29 00:43:28;;;;;;;31.33;22.48;;;22.90;99.90;;;23.52;78.91;101487.50;5050701;28;20049;-74
2023/06/29 00:45:56;;;;;;;32.92;22.80;;;23.00;99.90;;;23.51;79.06;101480.31;5054533;28;20075;-74
2023/06/29 00:48:25;;;;;;;31.10;24.40;;;23.00;99.90;;;23.53;79.06;101476.59;5051195;28;20050;-75
2023/06/29 00:50:53;;;;;;;31.58;22.42;;;23.00;99.90;;;23.52;79.13;101466.72;5053330;28;20049;-74
2023/06/29 00:53:22;;;;;;;31.92;23.50;;;23.00;99.90;;;23.50;79.04;101465.94;5053545;28;20053;-74
2023/06/29 00:55:50;;;;;;;33.90;23.88;;;23.00;99.90;;;23.49;79.28;101466.00;5054875;28;20041;-74
2023/06/29 00:58:21;;;;;;;;;;;23.00;99.90;;;23.49;79.25;101466.00;5053853;28;20037;-75
2023/06/29 01:00:50;;;;;;;36.58;23.88;;;23.00;99.90;;;23.48;79.38;101462.41;5054161;28;19975;-75
2023/06/29 01:03:20;;;;;;;31.63;23.30;;;23.00;99.90;;;23.45;79.50;101462.59;5050505;28;20041;-75
2023/06/29 01:05:50;;;;;;;32.78;23.17;;;22.90;99.90;;;23.44;79.83;101457.25;5051009;28;20091;-74
2023/06/29 01:08:23;;;;;;;35.97;24.17;;;22.90;99.90;;;23.45;79.67;101461.69;5054173;28;20102;-75
2023/06/29 01:10:52;;;;;;;32.20;22.95;;;22.90;99.90;;;23.43;79.68;101459.06;5054274;28;20052;-75
2023/06/29 01:13:21;;;;;;;30.17;21.95;;;22.90;99.90;;;23.42;79.74;101454.66;5054050;28;20055;-76
2023/06/29 01:15:53;;;;;;;32.70;23.27;;;22.90;99.90;;;23.44;79.82;101463.50;5054091;28;20355;-76
2023/06/29 01:18:24;;;;;;;31.15;22.13;;;22.90;99.90;;;23.45;79.85;101462.59;5050437;28;20719;-75
2023/06/29 01:20:54;;;;;;;32.38;24.40;;;22.90;99.90;;;23.46;79.83;101458.06;5065860;28;20045;-75
2023/06/29 01:23:26;;;;;;;30.42;22.63;;;22.90;99.90;;;23.45;79.95;101454.47;5054130;28;20048;-74
2023/06/29 01:25:57;;;;;;;34.80;23.90;;;22.90;99.90;;;23.45;80.32;101457.19;5053820;28;20057;-76
2023/06/29 01:28:28;;;;;;;32.80;23.77;;;22.90;99.90;;;23.45;80.06;101451.78;5053660;28;20037;-75
2023/06/29 01:30:57;;;;;;;34.60;24.42;;;22.90;99.90;;;23.45;80.44;101443.69;5053926;28;20497;-75
2023/06/29 01:33:26;;;;;;;32.45;23.42;;;22.90;99.90;;;23.43;81.30;101442.88;5048625;28;20049;-74
2023/06/29 01:36:01;;;;;;;35.92;24.73;;;22.90;99.90;;;23.21;82.51;101431.31;5053535;28;20401;-75
2023/06/29 01:38:37;;;;;;;35.05;24.70;;;22.70;99.90;;;23.10;83.05;101429.13;5053193;28;20067;-75
2023/06/29 01:41:13;;;;;;;32.63;24.92;;;22.50;99.90;;;22.99;83.53;101426.06;5053441;28;20044;-75
2023/06/29 01:43:41;;;;;;;34.50;26.05;;;22.50;99.90;;;23.05;83.94;101433.84;5050016;28;20071;-75
2023/06/29 01:46:11;;;;;;;35.00;25.60;;;22.50;99.90;;;23.11;83.33;101427.31;5053005;28;20049;-75
2023/06/29 01:48:40;;;;;;;36.05;26.13;;;22.50;99.90;;;23.17;82.98;101435.13;5049619;28;20045;-75
2023/06/29 01:51:08;;;;;;;37.17;25.45;;;22.60;99.90;;;23.23;82.79;101426.72;5051900;28;20110;-75
2023/06/29 01:53:37;;;;;;;34.78;25.55;;;22.70;99.90;;;23.25;82.87;101427.50;5053154;28;20057;-74
2023/06/29 01:56:07;;;;;;;38.08;26.75;;;22.70;99.90;;;23.24;83.09;101420.38;5053056;28;20493;-74
2023/06/29 01:58:36;;;;;;;37.88;28.33;;;22.70;99.90;;;23.20;83.12;101421.47;5053103;28;20048;-75
2023/06/29 02:01:04;;;;;;;35.40;26.30;;;22.70;99.90;;;23.22;83.25;101423.16;5051499;28;20049;-75
2023/06/29 02:03:33;;;;;;;37.00;26.80;;;22.70;99.90;;;23.20;83.00;101426.88;5049205;28;20041;-74
2023/06/29 02:06:02;;;;;;;38.22;28.23;;;22.70;99.90;;;23.21;83.16;101426.78;5053168;28;20541;-75
2023/06/29 02:08:31;;;;;;;38.08;27.83;;;22.70;99.90;;;23.21;83.35;101424.09;5051451;28;20060;-75
2023/06/29 02:11:00;;;;;;;38.47;27.67;;;22.70;99.90;;;23.09;83.12;101389.56;5052823;28;20037;-75
2023/06/29 02:13:30;;;;;;;39.85;29.55;;;22.70;99.90;;;23.25;83.22;101411.31;5052431;28;20437;-74
2023/06/29 02:15:59;;;;;;;41.58;29.95;;;22.70;99.90;;;23.20;83.20;101411.56;5052727;28;20452;-74
2023/06/29 02:18:27;;;;;;;39.92;28.17;;;22.70;99.90;;;23.21;83.38;101397.09;5052336;28;20045;-75
2023/06/29 02:20:56;;;;;;;40.85;29.63;;;22.70;99.90;;;23.10;83.56;101396.75;5051271;28;20082;-75
2023/06/29 02:23:24;;;;;;;40.40;30.17;;;22.70;99.90;;;23.20;83.64;101397.16;5051189;28;20049;-75
2023/06/29 02:25:53;;;;;;;42.95;30.58;;;22.70;99.90;;;23.21;83.51;101396.22;5047246;28;20041;-72
2023/06/29 02:28:21;;;;;;;45.45;31.73;;;22.60;99.90;;;23.18;83.83;101393.66;5051068;28;20082;-75
2023/06/29 02:30:55;;;;;;;45.88;31.58;;;22.70;99.90;;;23.19;83.75;101395.41;5052161;28;20048;-75
2023/06/29 02:33:24;;;;;;;45.30;30.90;;;22.70;99.90;;;23.19;83.92;101395.41;5052361;28;20478;-75
2023/06/29 02:35:52;;;;;;;43.30;31.95;;;22.70;99.90;;;23.19;84.33;101398.09;5050018;28;20049;-74
2023/06/29 02:38:21;;;;;;;45.15;32.67;;;22.60;99.90;;;23.20;84.19;101389.06;5051010;28;20413;-73
2023/06/29 02:40:50;;;;;;;48.08;32.42;;;22.70;99.90;;;23.20;84.24;101391.78;5050935;28;20045;-75
2023/06/29 02:43:18;;;;;;;41.58;29.90;;;22.70;99.90;;;23.22;84.49;101392.56;5067530;28;20144;-74
2023/06/29 02:45:47;;;;;;;44.00;31.42;;;22.70;99.90;;;23.19;84.52;101384.59;5046937;28;20056;-73
2023/06/29 02:48:16;;;;;;;47.10;32.53;;;22.70;99.90;;;23.19;84.75;101404.38;5063894;28;20053;-74
2023/06/29 02:50:45;;;;;;;45.15;32.55;;;22.70;99.90;;;23.18;84.72;101386.44;5052176;28;20398;-75
2023/06/29 02:53:16;;;;;;;45.72;32.22;;;22.70;99.90;;;23.16;84.95;101382.06;5050810;28;20068;-74
2023/06/29 02:55:45;;;;;;;45.50;33.05;;;22.60;99.90;;;23.15;85.00;101383.03;5049510;28;20107;-75
2023/06/29 02:58:13;;;;;;;43.33;31.67;;;22.60;99.90;;;23.15;85.12;101377.63;5052066;28;20052;-74
2023/06/29 03:00:42;;;;;;;45.40;32.88;;;22.60;99.90;;;23.13;85.25;101374.13;5050420;28;20482;-74
2023/06/29 03:03:10;;;;;;;45.63;32.15;;;22.60;99.90;;;23.12;84.81;101369.66;5050533;28;20068;-74
2023/06/29 03:05:40;;;;;;;44.10;31.35;;;22.60;99.90;;;23.12;84.53;101372.34;5064119;28;20053;-74
2023/06/29 03:08:09;;;;;;;45.10;32.58;;;22.60;99.90;;;23.11;84.49;101370.63;5047992;28;20049;-74
2023/06/29 03:10:37;;;;;;;46.35;31.90;;;22.60;99.90;;;23.10;84.21;101366.16;5051917;28;20063;-74
2023/06/29 03:13:06;;;;;;;42.10;30.60;;;22.60;99.90;;;22.71;83.74;101306.88;5050610;28;20520;-76
2023/06/29 03:15:34;;;;;;;40.03;28.60;;;22.50;99.90;;;22.99;83.56;101366.69;5051589;28;20087;-74
2023/06/29 03:18:03;;;;;;;38.58;28.30;;;22.50;99.90;;;22.95;82.84;101359.69;5052010;28;20068;-75
2023/06/29 03:20:31;;;;;;;37.28;26.67;;;22.40;99.90;;;22.91;82.42;101368.00;5051961;28;20045;-75
2023/06/29 03:23:01;;;;;;;34.42;26.30;;;22.40;99.90;;;22.87;82.05;101366.38;5051817;28;20151;-74
2023/06/29 03:25:29;;;;;;;36.90;26.30;;;22.30;99.90;;;22.82;82.03;101366.59;5051747;28;20122;-75
2023/06/29 03:27:58;;;;;;;38.67;27.95;;;22.30;99.90;;;22.78;82.06;101372.22;5050561;28;20337;-76
2023/06/29 03:30:26;;;;;;;34.72;25.63;;;22.30;99.90;;;22.62;82.02;101338.81;5051677;28;20102;-75
2023/06/29 03:32:58;;;;;;;34.08;26.05;;;22.20;99.90;;;22.67;82.36;101348.44;5047859;28;20127;-74
2023/06/29 03:35:26;;;;;;;33.67;25.08;;;22.20;99.90;;;22.66;82.42;101357.47;5051697;28;20044;-75
2023/06/29 03:37:55;;;;;;;38.00;25.85;;;22.10;99.90;;;22.62;82.22;101361.25;5051894;28;20110;-75
2023/06/29 03:40:24;;;;;;;34.10;24.73;;;22.10;99.90;;;22.65;82.28;101355.72;5058979;28;20045;-75
2023/06/29 03:42:53;;;;;;;39.63;25.87;;;22.10;99.90;;;22.58;82.17;101356.94;5069154;28;20041;-75
2023/06/29 03:45:22;;;;;;;34.75;25.27;;;22.10;99.90;;;22.58;82.03;101353.38;5056053;28;20279;-74
2023/06/29 03:47:50;;;;;;;35.20;25.45;;;22.10;99.90;;;22.55;82.11;101356.19;5055484;28;20478;-75
2023/06/29 03:50:19;;;;;;;30.67;24.45;;;22.00;99.90;;;22.49;81.92;101360.03;5055769;28;20052;-75
2023/06/29 03:52:47;;;;;;;34.22;25.20;;;22.00;99.90;;;22.50;81.86;101355.50;5055975;28;20106;-73
2023/06/29 03:55:16;;;;;;;32.05;24.90;;;22.00;99.90;;;22.50;81.69;101358.19;5051591;28;20076;-75
2023/06/29 03:57:46;;;;;;;35.60;24.67;;;22.00;99.90;;;22.50;81.69;101358.19;5055203;28;20049;-76
2023/06/29 04:00:15;;;;;;;31.35;24.98;;;22.00;99.90;;;22.49;81.48;101345.69;5055544;28;20339;-75
2023/06/29 04:02:43;;;;;;;31.63;24.50;;;22.00;99.90;;;22.56;81.42;101347.13;5055598;28;20049;-75
2023/06/29 04:05:12;;;;;;;30.73;24.20;;;22.00;99.90;;;22.59;81.18;101342.50;5055275;28;20110;-76
2023/06/29 04:07:40;;;;;;;34.72;24.10;;;22.10;99.90;;;22.61;81.11;101354.09;5055170;28;20041;-75
2023/06/29 04:10:09;;;;;;;31.55;24.13;;;22.10;99.90;;;22.61;81.08;101347.84;5054962;28;20452;-75
2023/06/29 04:12:38;;;;;;;32.10;24.40;;;22.10;99.90;;;22.65;80.88;101344.91;5054945;28;20049;-75
2023/06/29 04:15:10;;;;;;;32.38;23.55;;;22.10;99.90;;;22.66;80.94;101343.09;5054915;28;20068;-76
2023/06/29 04:17:38;;;;;;;31.48;25.52;;;22.20;99.90;;;22.65;80.97;101344.06;5054839;28;20075;-75
2023/06/29 04:20:08;;;;;;;33.92;25.17;;;22.10;99.90;;;22.61;81.20;101339.75;5054752;28;20045;-75
2023/06/29 04:22:37;;;;;;;33.33;25.05;;;22.10;99.90;;;22.57;81.25;101335.47;5054723;28;20063;-75
2023/06/29 04:25:06;;;;;;;34.17;25.63;;;22.00;99.90;;;22.57;81.58;101336.31;5054902;28;20171;-75
2023/06/29 04:27:35;;;;;;;36.17;27.37;;;22.10;99.90;;;22.40;81.63;101317.31;5054572;28;20106;-74
2023/06/29 04:30:04;;;;;;;37.20;26.58;;;22.10;99.90;;;22.55;81.58;101327.38;5054444;28;20299;-76
2023/06/29 04:32:34;;;;;;;34.97;26.67;;;22.10;99.90;;;22.20;81.32;101272.38;5054725;28;20076;-75
2023/06/29 04:35:03;;;;;;;;;;;22.10;99.90;;;22.57;81.36;101339.00;5054842;28;20041;-73
2023/06/29 04:37:36;;;;;;;36.60;26.73;;;22.10;99.90;;;22.57;81.41;101341.69;5054355;28;19927;-75
2023/06/29 04:40:08;;;;;;;37.80;27.83;;;22.10;99.90;;;22.53;81.91;101342.75;5051297;28;20136;-76
2023/06/29 04:42:43;;;;;;;37.83;27.40;;;22.00;99.90;;;22.46;81.73;101322.41;5054336;28;20409;-75
2023/06/29 04:45:17;;;;;;;38.33;28.27;;;22.00;99.90;;;22.58;81.79;101338.06;5054249;28;20469;-75
2023/06/29 04:47:50;;;;;;;37.17;27.45;;;22.10;99.90;;;22.60;81.63;101340.69;5051047;28;20084;-74
2023/06/29 04:50:24;;;;;;;41.10;29.05;;;22.10;99.90;;;22.56;81.41;101336.34;5052931;28;20147;-76
2023/06/29 04:52:54;;;;;;;38.35;27.50;;;22.10;99.90;;;22.63;81.25;101337.88;5053910;28;20036;-75
2023/06/29 04:55:23;;;;;;;39.80;29.00;;;22.10;99.90;;;22.58;81.39;101329.97;5054374;28;20055;-75
2023/06/29 04:57:51;;;;;;;40.28;30.15;;;22.10;99.90;;;22.63;81.35;101327.94;5054245;28;20109;-76
2023/06/29 05:00:20;;;;;;;38.45;29.25;;;22.10;99.90;;;22.63;81.26;101335.19;5049993;28;20174;-75
2023/06/29 05:02:50;;;;;;;40.95;28.95;;;22.10;99.90;;;22.58;81.52;101334.50;5053858;28;20045;-75
2023/06/29 05:05:18;;;;;;;41.45;30.55;;;22.10;99.90;;;22.59;81.68;101333.56;5053743;28;20516;-75
2023/06/29 05:07:47;;;;;;;38.03;29.85;;;22.10;99.90;;;22.58;81.87;101334.50;5053886;28;20446;-76
2023/06/29 05:10:15;;;;;;;42.97;31.80;;;22.10;99.90;;;22.51;82.11;101328.50;5053880;28;20045;-75
2023/06/29 05:12:44;;;;;;;49.60;33.55;;;22.00;99.90;;;22.57;82.00;101327.38;5053726;28;20072;-75
2023/06/29 05:15:12;;;;;;;49.30;32.72;;;22.10;99.90;;;22.55;82.07;101331.91;5053645;28;20123;-76
2023/06/29 05:17:40;;;;;;;46.53;33.13;;;22.10;99.90;;;22.48;82.38;101330.44;5053595;28;20076;-76
2023/06/29 05:20:12;;;;;;;49.15;33.83;;;22.00;99.90;;;22.35;82.51;101311.25;5052560;28;20060;-75
2023/06/29 05:22:41;;;;;;;51.60;32.45;;;21.90;99.90;;;22.43;82.62;101323.44;5050291;28;20045;-75
2023/06/29 05:25:09;;;;;;;52.78;35.65;;;21.90;99.90;;;22.42;82.65;101326.19;5052430;28;20528;-75
2023/06/29 05:27:38;;;;;;;49.22;34.78;;;21.90;99.90;;;22.27;82.84;101295.44;5053503;28;20044;-76
2023/06/29 05:30:08;;;;;;;47.58;33.88;;;21.90;99.90;;;22.41;82.93;101321.78;5053374;28;20083;-75
2023/06/29 05:32:37;;;;;;;;;;;21.90;99.90;;;22.35;83.30;101317.53;5054212;28;20041;-76
2023/06/29 05:35:06;;;;;;;48.85;33.33;;;21.90;99.90;;;22.30;83.41;101315.97;5053391;28;20281;-75
2023/06/29 05:37:35;;;;;;;49.17;33.17;;;21.80;99.90;;;22.28;83.62;101318.75;5053602;28;20052;-75
2023/06/29 05:40:06;;;;;;;51.50;33.78;;;21.80;99.90;;;22.33;83.83;101318.53;5053242;28;20052;-76
2023/06/29 05:42:34;;;;;;;51.10;34.63;;;21.80;99.90;;;22.34;83.73;101321.16;5050076;28;20056;-75
2023/06/29 05:45:04;;;;;;;48.53;34.33;;;21.90;99.90;;;22.33;83.82;101326.63;5053340;28;20040;-75
2023/06/29 05:47:32;;;;;;;49.97;34.60;;;21.80;99.90;;;22.31;83.97;101324.00;5053381;28;20098;-73
2023/06/29 05:50:01;;;;;;;50.08;34.60;;;21.80;99.90;;;22.26;84.00;101323.31;5053088;28;20444;-72
2023/06/29 05:52:29;;;;;;;50.88;35.20;;;21.80;99.90;;;22.29;84.25;101315.13;5053383;28;20456;-74
2023/06/29 05:54:59;;;;;;;50.95;35.55;;;21.80;99.90;;;22.34;83.98;101329.25;5053700;28;20127;-73
2023/06/29 05:57:28;;;;;;;50.63;33.95;;;21.80;99.90;;;22.16;84.04;101319.28;5053957;28;20067;-74
2023/06/29 05:59:56;;;;;;;49.35;35.35;;;21.80;99.90;;;22.36;84.42;101323.78;5053412;28;20053;-75
2023/06/29 06:02:25;;;;;;;51.53;35.72;;;21.90;99.90;;;22.30;84.32;101329.44;5052785;28;20044;-76
2023/06/29 06:04:53;;;;;;;52.80;35.90;;;21.80;99.90;;;22.22;84.43;101328.94;5048124;28;20099;-76
2023/06/29 06:07:29;;;;;;;52.75;35.17;;;21.80;99.90;;;22.21;84.55;101317.28;5049172;28;20505;-74
2023/06/29 06:09:59;;;;;;;51.03;36.03;;;21.70;99.90;;;22.19;84.72;101316.47;5052586;28;20059;-76
2023/06/29 06:12:28;;;;;;;56.78;36.55;;;21.70;99.90;;;22.23;84.78;101326.16;5052971;28;20053;-78
2023/06/29 06:14:56;;;;;;;54.40;37.80;;;21.70;99.90;;;22.29;84.68;101319.63;5052828;28;20416;-84
2023/06/29 06:17:25;;;;;;;55.78;36.72;;;21.80;99.90;;;21.95;84.74;101260.13;5053043;28;20486;-81
2023/06/29 06:19:55;;;;;;;51.38;37.00;;;21.80;99.90;;;22.30;84.73;101322.25;5052428;28;20079;-77
2023/06/29 06:22:24;;;;;;;55.13;36.25;;;21.80;99.90;;;22.37;84.71;101315.66;5048709;28;20103;-77
2023/06/29 06:24:52;;;;;;;53.72;37.50;;;21.90;99.90;;;22.33;84.96;101321.25;5052382;28;20056;-81
2023/06/29 06:27:22;;;;;;;54.60;37.38;;;21.80;99.90;;;22.30;84.95;101315.97;5052354;28;20041;-82
2023/06/29 06:29:50;;;;;;;52.47;36.45;;;21.90;99.90;;;22.33;84.93;101315.84;5052254;28;20041;-82
2023/06/29 06:32:24;;;;;;;57.15;38.22;;;21.90;99.90;;;22.33;85.24;101322.13;5049905;28;20061;-79
2023/06/29 06:34:52;;;;;;;58.63;37.30;;;21.80;99.90;;;22.33;85.32;101329.31;5052455;28;20402;-82
2023/06/29 06:37:21;;;;;;;57.10;37.65;;;21.80;99.90;;;22.41;85.30;101319.06;5052329;28;20037;-83
2023/06/29 06:39:50;;;;;;;56.03;37.63;;;21.90;99.90;;;22.50;85.75;101323.16;5052075;28;20049;-81
2023/06/29 06:42:18;;;;;;;59.72;38.33;;;22.00;99.90;;;22.45;85.63;101321.53;5051031;28;20080;-80
2023/06/29 06:44:55;;;;;;;55.67;37.50;;;22.00;99.90;;;22.42;85.67;101320.81;5052051;28;20067;-82
2023/06/29 06:47:24;;;;;;;54.95;36.30;;;22.00;99.90;;;22.41;85.83;101324.47;5052098;28;20041;-82
2023/06/29 06:49:52;;;;;;;52.65;36.60;;;22.00;99.90;;;22.40;85.93;101323.56;5051917;28;20056;-81
2023/06/29 06:52:21;;;;;;;52.55;36.40;;;21.90;99.90;;;22.45;86.07;101324.22;5050861;28;20098;-81
2023/06/29 06:54:50;;;;;;;51.38;34.83;;;21.90;99.90;;;22.38;86.07;101305.72;5052165;28;20375;-82
2023/06/29 06:57:19;;;;;;;51.03;35.50;;;22.00;99.90;;;22.52;86.24;101318.56;5050578;28;20048;-81
2023/06/29 06:59:48;;;;;;;51.85;35.42;;;22.00;99.90;;;22.51;86.01;101316.81;5048395;28;20141;-82
2023/06/29 07:02:18;;;;;;;49.33;34.97;;;22.00;99.90;;;22.54;86.38;101316.66;5051781;28;20096;-77
2023/06/29 07:04:46;;;;;;;49.92;36.40;;;22.00;99.90;;;22.52;86.63;101319.44;5048919;28;20148;-81
2023/06/29 07:07:15;;;;;;;50.83;35.55;;;22.00;99.90;;;22.49;86.82;101313.31;5052147;28;20389;-80
2023/06/29 07:09:44;;;;;;;49.33;34.15;;;22.00;99.90;;;22.55;87.06;101329.22;5051746;28;20465;-82
2023/06/29 07:12:13;;;;;;;53.67;35.80;;;22.00;99.90;;;22.50;87.15;101321.34;5052135;28;20037;-86
2023/06/29 07:14:41;;;;;;;49.58;34.85;;;22.00;99.90;;;22.50;87.40;101321.34;5051710;28;20045;-80
2023/06/29 07:17:10;;;;;;;47.78;34.25;;;22.00;99.90;;;22.50;87.74;101315.06;5055245;28;20045;-81
2023/06/29 07:19:41;;;;;;;47.20;34.45;;;22.00;99.90;;;22.52;87.79;101316.75;5055833;28;20051;-79
2023/06/29 07:22:12;;;;;;;44.72;32.22;;;22.00;99.90;;;22.63;87.88;101314.44;5068293;28;20073;-77
2023/06/29 07:24:43;;;;;;;46.10;33.85;;;22.10;99.90;;;22.72;87.63;101314.03;5056107;28;20053;-75
2023/06/29 07:27:12;;;;;;;42.55;30.70;;;22.20;99.90;;;22.75;87.30;101316.56;5055936;28;20063;-77
2023/06/29 07:29:42;;;;;;;44.50;29.52;;;22.30;99.90;;;22.72;87.68;101307.75;5055605;28;20037;-69
2023/06/29 07:32:11;;;;;;;40.75;29.40;;;22.30;99.90;;;22.84;87.78;101301.78;5055646;28;20056;-82
2023/06/29 07:34:41;;;;;;;43.22;32.03;;;22.30;99.90;;;22.85;87.61;101292.72;5055654;28;20405;-73
2023/06/29 07:37:09;;;;;;;43.03;31.20;;;22.40;99.90;;;22.95;87.54;101304.81;5051625;28;20102;-63
2023/06/29 07:39:38;;;;;;;40.20;29.67;;;22.50;99.90;;;23.00;87.29;101309.06;5054281;28;20095;-64
2023/06/29 07:42:06;;;;;;;39.90;29.13;;;22.50;99.90;;;23.01;87.16;101302.72;5055345;28;20465;-65
2023/06/29 07:44:35;;;;;;;37.08;26.80;;;22.50;99.90;;;23.12;87.10;101307.56;5055363;28;20091;-65
2023/06/29 07:47:04;;;;;;;33.55;24.33;;;22.60;99.90;;;23.10;86.88;101304.97;5055300;28;20096;-63
2023/06/29 07:49:33;;;;;;;31.70;22.52;;;22.60;99.90;;;23.14;86.65;101301.16;5055414;28;20152;-65
2023/06/29 07:52:04;;;;;;;27.55;20.75;;;22.70;99.90;;;23.25;87.08;101304.19;5055498;28;20045;-64
2023/06/29 07:54:32;;;;;;;30.23;20.65;;;22.80;99.90;;;23.21;86.77;101299.00;5055240;28;20041;-65
2023/06/29 07:57:00;;;;;;;28.30;20.58;;;22.80;99.90;;;23.25;86.15;101315.00;5055218;28;20083;-65
2023/06/29 07:59:32;;;;;;;28.58;19.30;;;22.80;99.90;;;23.20;85.97;101308.06;5051756;28;20107;-65
2023/06/29 08:02:00;;;;;;;27.45;19.85;;;22.80;99.90;;;23.12;85.83;101308.47;5055052;28;20045;-63
2023/06/29 08:04:29;;;;;;;27.33;19.98;;;22.70;99.90;;;22.87;85.66;101293.53;5054994;28;20377;-63
2023/06/29 08:07:02;;;;;;;30.42;19.15;;;22.60;99.90;;;23.05;86.01;101308.84;5055254;28;20036;-63
2023/06/29 08:09:35;;;;;;;24.00;18.65;;;22.60;99.90;;;23.08;85.91;101305.97;5053508;28;20045;-63
2023/06/29 08:12:03;;;;;;;28.98;19.65;;;22.60;99.90;;;23.03;85.85;101298.13;5054786;28;20049;-63
2023/06/29 08:14:34;;;;;;;27.48;19.65;;;22.60;99.90;;;23.11;85.65;101306.69;5055066;28;20486;-63
2023/06/29 08:17:04;;;;;;;29.83;19.45;;;22.60;99.90;;;23.14;85.93;101301.16;5051454;28;20486;-63
2023/06/29 08:19:32;;;;;;;26.27;19.00;;;22.70;99.90;;;23.06;85.77;101275.47;5054709;28;20095;-63
2023/06/29 08:22:02;;;;;;;30.15;20.90;;;22.70;99.90;;;23.18;86.24;101301.88;5053628;28;20059;-63
2023/06/29 08:24:31;;;;;;;27.15;20.58;;;22.70;99.90;;;23.26;85.80;101303.25;5054731;28;20044;-62
2023/06/29 08:27:00;;;;;;;30.38;20.48;;;22.80;99.90;;;23.19;85.71;101298.22;5054479;28;20048;-67
2023/06/29 08:29:28;;;;;;;32.15;22.23;;;22.70;99.90;;;23.28;85.71;101303.19;5054792;28;20398;-64
2023/06/29 08:31:57;;;;;;;35.40;23.17;;;22.80;99.90;;;23.23;85.87;101299.81;5053171;28;20053;-64
2023/06/29 08:34:25;;;;;;;30.40;22.77;;;22.80;99.90;;;23.29;85.35;101300.41;5054536;28;20136;-63
2023/06/29 08:36:54;;;;;;;32.30;24.88;;;22.80;99.90;;;23.27;85.36;101301.41;5050758;28;20048;-63
2023/06/29 08:39:24;;;;;;;34.80;25.75;;;22.80;99.90;;;23.13;85.18;101304.78;5053106;28;20052;-63
2023/06/29 08:41:52;;;;;;;36.17;25.48;;;22.70;99.90;;;23.19;85.63;101293.69;5054780;28;20049;-63
2023/06/29 08:44:22;;;;;;;37.05;25.70;;;22.70;99.90;;;23.16;85.53;101293.88;5054761;28;20049;-63
2023/06/29 08:46:51;;;;;;;34.20;24.20;;;22.70;99.90;;;23.26;85.91;101294.28;5054393;28;20044;-63
2023/06/29 08:49:23;;;;;;;38.45;23.40;;;22.70;99.90;;;22.74;86.11;101197.97;5054166;28;20444;-63
2023/06/29 08:51:56;;;;;;;28.92;22.30;;;22.80;99.90;;;23.37;85.85;101297.34;5054598;28;20103;-64
2023/06/29 08:54:27;;;;;;;37.25;25.77;;;22.90;99.90;;;23.33;85.39;101292.16;5050629;28;20347;-69
2023/06/29 08:56:57;;;;;;;36.22;25.58;;;22.90;99.90;;;23.19;84.58;101285.59;5054237;28;20041;-68
2023/06/29 08:59:27;;;;;;;31.15;24.02;;;22.90;99.90;;;23.33;85.16;101303.84;5053884;28;20079;-68
2023/06/29 09:01:58;;;;;;;31.77;22.30;;;22.80;99.90;;;23.11;85.54;101241.06;5054262;28;20057;-67
2023/06/29 09:04:26;;;;;;;;;;;22.90;99.90;;;23.49;84.56;101307.53;5053072;28;20529;-67
2023/06/29 09:06:55;;;;;;;32.05;21.02;;;23.10;99.90;;;23.45;84.35;101300.53;5053849;28;19971;-69
2023/06/29 09:09:26;;;;;;;32.53;20.70;;;23.10;99.90;;;23.45;83.90;101297.84;5053848;28;20057;-73
2023/06/29 09:11:55;;;;;;;30.48;21.45;;;23.10;99.90;;;23.57;83.64;101302.63;5050492;28;20069;-73
2023/06/29 09:14:24;;;;;;;32.40;20.50;;;23.10;99.90;;;23.65;83.47;101296.81;5052448;28;20095;-73
2023/06/29 09:16:54;;;;;;;28.20;19.80;;;23.20;99.90;;;23.70;82.95;101278.53;5053669;28;20049;-73
2023/06/29 09:19:24;;;;;;;29.70;20.20;;;23.30;99.90;;;23.97;83.43;101304.13;5061293;28;20098;-78
2023/06/29 09:21:53;;;;;;;24.90;18.83;;;23.50;99.90;;;23.96;82.36;101302.38;5053611;28;20056;-78
2023/06/29 09:24:22;;;;;;;28.25;18.58;;;23.50;99.90;;;24.03;81.47;101302.00;5052715;28;20094;-72
2023/06/29 09:26:55;;;;;;;24.20;18.33;;;23.60;99.90;;;24.11;80.98;101299.78;5053559;28;20037;-85
2023/06/29 09:29:24;;;;;;;28.35;19.33;;;23.70;99.90;;;24.06;80.38;101291.00;5050017;28;20045;-81
2023/06/29 09:31:56;;;;;;;25.15;18.92;;;23.70;99.90;;;23.64;80.42;101201.38;5053217;28;20040;-75
2023/06/29 09:34:27;;;;;;;26.67;18.38;;;23.70;99.90;;;24.25;80.34;101306.25;5053589;28;20449;-66
2023/06/29 09:36:57;;;;;;;28.55;19.05;;;23.80;99.90;;;24.28;80.40;101309.66;5053254;28;20040;-66
2023/06/29 09:39:26;;;;;;;25.58;18.42;;;23.80;99.90;;;24.26;80.51;101286.38;5052198;28;20512;-66
2023/06/29 09:41:57;;;;;;;26.40;19.05;;;23.90;99.90;;;24.49;79.99;101299.50;5053173;28;20048;-67
2023/06/29 09:44:26;;;;;;;26.75;17.70;;;24.10;99.90;;;24.60;79.83;101305.22;5049449;28;20428;-67
2023/06/29 09:47:05;;;;;;;28.45;17.73;;;24.10;99.90;;;24.58;79.60;101312.53;5052974;28;20049;-70
2023/06/29 09:49:45;;;;;;;26.83;18.38;;;24.10;99.90;;;24.57;78.88;101322.50;5053017;28;20045;-70
2023/06/29 09:52:14;;;;;;;24.88;18.52;;;24.10;99.90;;;24.62;78.73;101314.13;5049838;28;20056;-72
2023/06/29 09:54:43;;;;;;;26.70;17.83;;;24.10;99.90;;;24.52;78.25;101296.66;5051468;28;20071;-69
2023/06/29 09:57:13;;;;;;;25.23;19.08;;;24.20;99.90;;;24.67;78.25;101312.03;5052794;28;20444;-70
2023/06/29 09:59:44;;;;;;;25.42;18.48;;;24.20;99.90;;;24.52;78.05;101300.22;5052844;28;20115;-69
2023/06/29 10:02:13;;;;;;;;;;;24.20;99.90;;;24.60;77.38;101316.88;5053473;28;20106;-69
2023/06/29 10:04:42;;;;;;;23.13;18.33;;;24.20;99.90;;;24.10;77.31;101225.00;5052752;28;19937;-69
2023/06/29 10:07:16;;;;;;;25.65;19.20;;;24.10;99.90;;;24.71;78.11;101314.50;5052614;28;20049;-70
2023/06/29 10:09:47;;;;;;;24.45;18.17;;;24.30;99.90;;;24.76;77.33;101314.25;5040488;28;20114;-72